Flight Track Log - Related Links

Times and Time Zones

All times are in EDT time to prevent confusion due to time zone crossing. See the ASQ4187 flight status page for this flight to view local times or setup timezone preferences in your user account.

Time Position Orientation Groundspeed Altitude Reporting Facility
EDT Latitude Longitude Course Direction KTS MPH feet Rate Location/Type
Sun 12:49:50 PM 36.1500 -86.7333 68° East 202 232 2,100  Level Nashville TRACON
Sun 12:51:20 PM 36.0833 -86.7000 158° South 258 297 5,900 2,459 Climbing Nashville TRACON
Sun 12:52:00 PM 36.1826 -86.1871 76° East  Level FlightAware Approximate
Sun 12:52:53 PM 36.1133 -86.5683 74° East 268 308 9,600  Level Indianapolis Center
Sun 12:53:00 PM 36.2000 -86.0668 80° East  Level FlightAware Approximate
Sun 12:53:55 PM 36.1306 -86.4697 78° East 287 330 11,800  Level Indianapolis Center
Sun 12:54:00 PM 36.2438 -85.9573 64° Northeast  Level FlightAware Approximate
Sun 12:54:57 PM 36.1494 -86.3619 78° East 315 362 13,000  Level Indianapolis Center
Sun 12:55:00 PM 36.2847 -85.8461 68° East  Level FlightAware Approximate
Sun 12:56:07 PM 36.1750 -86.2175 78° East 346 398 14,200  Level Memphis Center
Sun 12:57:07 PM 36.1975 -86.0850 78° East 380 437 15,400 1,200 Climbing Memphis Center
Sun 12:58:07 PM 36.2369 -85.9594 69° East 386 444 16,600 1,271 Climbing Memphis Center
Sun 12:59:05 PM 36.2825 -85.8308 66° East 402 463 17,900 1,488 Climbing Indianapolis Center
Sun 01:00:08 PM 36.3308 -85.6953 66° East 396 456 19,600 1,536 Climbing Indianapolis Center
Sun 01:01:10 PM 36.3722 -85.5717 67° East 389 448 21,100 1,403 Climbing Indianapolis Center
Sun 01:02:12 PM 36.4125 -85.4456 68° East 391 450 22,500 1,258 Climbing Indianapolis Center
Sun 01:03:14 PM 36.4394 -85.3108 76° East 399 459 23,700 1,065 Climbing Indianapolis Center
Sun 01:04:16 PM 36.4631 -85.1733 78° East 403 464 24,700 1,016 Climbing Indianapolis Center
Sun 01:05:18 PM 36.5019 -85.0361 71° East 417 480 25,800 1,065 Climbing Indianapolis Center
Sun 01:06:20 PM 36.5694 -84.9200 54° Northeast 416 479 26,900 1,306 Climbing Indianapolis Center
Sun 01:07:22 PM 36.6147 -84.7528 71° East 419 482 28,500 1,403 Climbing Indianapolis Center
Sun 01:08:24 PM 36.6439 -84.6125 75° East 416 479 29,800 1,210 Climbing Indianapolis Center
Sun 01:09:26 PM 36.6686 -84.4886 76° East 413 475 31,000 1,317 Climbing Indianapolis Center
Sun 01:10:27 PM 36.7036 -84.3289 75° East 409 471 32,500 1,366 Climbing Indianapolis Center
Sun 01:11:29 PM 36.7356 -84.1939 74° East 405 466 33,800 1,161 Climbing Indianapolis Center
Sun 01:12:31 PM 36.7608 -84.0594 77° East 399 459 34,900 581 Climbing Indianapolis Center
Sun 01:13:33 PM 36.7881 -83.9222 76° East 406 467 35,000 48 Climbing Indianapolis Center
Sun 01:14:35 PM 36.8189 -83.7775 75° East 432 497 35,000  Level Indianapolis Center
Sun 01:15:37 PM 36.8781 -83.6092 66° East 460 529 35,000  Level Indianapolis Center
Sun 01:16:39 PM 36.9331 -83.4597 65° Northeast 473 544 35,000  Level Indianapolis Center
Sun 01:17:41 PM 36.9914 -83.3086 64° Northeast 480 552 35,000  Level Indianapolis Center
Sun 01:18:43 PM 37.0411 -83.1483 69° East 486 559 35,000  Level Indianapolis Center
Sun 01:19:45 PM 37.0889 -82.9886 69° East 483 556 35,000  Level Indianapolis Center
Sun 01:20:47 PM 37.1383 -82.8275 69° East 487 560 35,000  Level Indianapolis Center
Sun 01:21:49 PM 37.1872 -82.6697 69° East 481 554 35,000  Level Indianapolis Center
Sun 01:22:52 PM 37.2383 -82.5122 68° East 484 557 35,000  Level Indianapolis Center
Sun 01:23:54 PM 37.3006 -82.3294 67° East 485 558 35,000  Level Indianapolis Center
Sun 01:24:56 PM 37.3542 -82.1747 66° East 483 556 35,000  Level Indianapolis Center
Sun 01:25:58 PM 37.4078 -82.0222 66° East 478 550 35,000  Level Indianapolis Center
Sun 01:27:00 PM 37.4656 -81.8717 64° Northeast 478 550 35,000  Level Indianapolis Center
Sun 01:28:02 PM 37.5294 -81.7236 61° Northeast 480 552 35,000  Level Indianapolis Center
Sun 01:29:04 PM 37.5914 -81.5764 62° Northeast 476 548 35,000  Level Indianapolis Center
Sun 01:30:05 PM 37.6619 -81.4117 62° Northeast 478 550 35,000  Level Indianapolis Center
Sun 01:31:07 PM 37.7219 -81.2675 62° Northeast 478 550 35,000  Level Indianapolis Center
Sun 01:32:09 PM 37.7781 -81.1208 64° Northeast 477 549 35,000  Level Indianapolis Center
Sun 01:33:11 PM 37.7933 -80.9325 84° East 460 529 35,000  Level Indianapolis Center
Sun 01:34:13 PM 37.8033 -80.7739 85° East 465 535 35,000  Level Indianapolis Center
Sun 01:35:15 PM 37.8142 -80.6042 85° East 463 533 35,000  Level Indianapolis Center
Sun 01:36:03 PM 37.8231 -80.4897 84° East 456 525 35,000  Level Washington Center
Sun 01:37:04 PM 37.8342 -80.3142 85° East 461 531 35,000  Level Washington Center
Sun 01:38:02 PM 37.8447 -80.1519 85° East 461 531 35,000  Level Washington Center
Sun 01:39:04 PM 37.8694 -79.9928 79° East 456 525 35,000  Level Washington Center
Sun 01:40:03 PM 37.9717 -79.8750 42° Northeast 452 520 35,000  Level Washington Center
Sun 01:41:03 PM 38.0739 -79.7569 42° Northeast 469 540 35,000  Level Washington Center
Sun 01:42:04 PM 38.1711 -79.6592 38° Northeast 480 552 35,000  Level Washington Center
Sun 01:43:02 PM 38.2769 -79.5486 39° Northeast 485 558 35,000  Level Washington Center
Sun 01:44:03 PM 38.3725 -79.4292 44° Northeast 490 564 35,000  Level Washington Center
Sun 01:45:04 PM 38.4478 -79.2953 54° Northeast 476 548 35,000  Level Washington Center
Sun 01:46:02 PM 38.5028 -79.1256 67° East 464 534 35,000  Level Washington Center
Sun 01:47:03 PM 38.5242 -78.9647 80° East 455 524 35,000  Level Washington Center
Sun 01:48:04 PM 38.5367 -78.8167 84° East 455 524 35,000  Level Washington Center
Sun 01:49:02 PM 38.5511 -78.6581 83° East 455 524 35,000  Level Washington Center
Sun 01:50:03 PM 38.5636 -78.4939 84° East 460 529 35,000  Level Washington Center
Sun 01:51:01 PM 38.5778 -78.3325 84° East 460 529 35,000  Level Washington Center
Sun 01:52:02 PM 38.5919 -78.1681 84° East 460 529 35,000  Level Washington Center
Sun 01:53:02 PM 38.6058 -78.0014 84° East 460 529 35,000  Level Washington Center
Sun 01:54:03 PM 38.6192 -77.8397 84° East 460 529 35,000  Level Washington Center
Sun 01:55:04 PM 38.6306 -77.6725 85° East 460 529 35,000  Level Washington Center
Sun 01:56:02 PM 38.6436 -77.5133 84° East 460 529 35,000  Level Washington Center
Sun 01:57:03 PM 38.6567 -77.3569 84° East 448 516 35,000  Level Washington Center
Sun 01:58:02 PM 38.6692 -77.2031 84° East 442 509 35,000  Level Washington Center
Sun 01:59:02 PM 38.7086 -77.0575 71° East 436 502 35,000  Level Washington Center
Sun 02:00:03 PM 38.7872 -76.9258 53° Northeast 437 503 35,000  Level Washington Center
Sun 02:01:03 PM 38.8592 -76.8072 52° Northeast 455 524 35,000 -504 Level Washington Center
Sun 02:02:02 PM 38.9378 -76.6697 54° Northeast 455 524 34,000 -1,400 Descending Washington Center
Sun 02:03:03 PM 39.0222 -76.5186 54° Northeast 450 518 32,200 -1,820 Descending Washington Center
Sun 02:04:04 PM 39.1150 -76.4075 43° Northeast 450 518 30,300 -1,850 Descending Washington Center
Sun 02:05:03 PM 39.2094 -76.3014 41° Northeast 450 518 28,500 -1,800 Descending Washington Center
Sun 02:06:04 PM 39.2956 -76.1761 48° Northeast 450 518 26,700 -1,686 Descending Washington Center
Sun 02:07:04 PM 39.3897 -76.0803 38° Northeast 474 545 25,100 -1,714 Descending Washington Center
Sun 02:08:03 PM 39.4672 -75.9597 50° Northeast 448 516 23,300 -1,563 Descending Washington Center
Sun 02:09:03 PM 39.5425 -75.8336 52° Northeast 440 506 22,000 -645 Descending Washington Center
Sun 02:10:04 PM 39.6197 -75.7072 52° Northeast 440 506 22,000  Level Washington Center
Sun 02:11:02 PM 39.6989 -75.5861 50° Northeast 440 506 22,000 -50 Level Washington Center
Sun 02:12:03 PM 39.7886 -75.4781 43° Northeast 440 506 21,900 -1,623 Descending Washington Center
Sun 02:13:04 PM 39.8739 -75.3753 43° Northeast 429 494 18,700 -3,620 Descending Washington Center
Sun 02:14:04 PM 39.9589 -75.2719 43° Northeast 416 479 14,600 -3,407 Descending Washington Center
Sun 02:15:02 PM 40.0358 -75.1797 43° Northeast 395 455 12,000 -1,509 Descending Washington Center
Sun 02:16:43 PM 40.1667 -75.0167 44° Northeast 353 406 10,600 -1,006 Descending New York TRACON
Sun 02:17:43 PM 40.2333 -74.9333 44° Northeast 307 353 9,300 -1,250 Descending New York TRACON
Sun 02:18:43 PM 40.2833 -74.8500 52° Northeast 286 329 8,100 -650 Descending New York TRACON
Sun 02:19:43 PM 40.3500 -74.7833 37° Northeast 294 338 8,000 -500 Descending New York TRACON
Sun 02:20:43 PM 40.4000 -74.7167 45° Northeast 285 328 7,100 -950 Descending New York TRACON
Sun 02:21:43 PM 40.4667 -74.6667 30° Northeast 284 327 6,100 -550 Descending New York TRACON
Sun 02:22:43 PM 40.5333 -74.6333 21° North 281 323 6,000 -52 Descending New York TRACON
Sun 02:23:38 PM 40.6000 -74.6167 11° North 277 319 6,000  Level New York TRACON
Sun 02:24:43 PM 40.7000 -74.6000 North 291 335 6,000 -384 Level New York TRACON
Sun 02:25:43 PM 40.7667 -74.5667 21° North 290 334 5,200 -500 Descending New York TRACON
Sun 02:26:43 PM 40.8333 -74.5167 30° Northeast 275 316 5,000 -100 Descending New York TRACON
Sun 02:27:43 PM 40.9000 -74.4500 37° Northeast 282 325 5,000 50 Level New York TRACON
Sun 02:28:43 PM 40.9500 -74.3833 45° Northeast 249 287 5,100 -50 Climbing New York TRACON
Sun 02:29:43 PM 41.0000 -74.3167 45° Northeast 252 290 4,900 -550 Descending New York TRACON
Sun 02:30:43 PM 41.0333 -74.2500 56° Northeast 254 292 4,000 -450 Descending New York TRACON
Sun 02:31:43 PM 41.0000 -74.1667 118° Southeast 235 270 4,000 50 Level New York TRACON
Sun 02:32:43 PM 40.9500 -74.1333 153° Southeast 223 257 4,100 -200 Climbing New York TRACON
Sun 02:33:43 PM 40.9000 -74.1000 153° Southeast 191 220 3,600 -524 Descending New York TRACON
Sun 02:34:49 PM 40.8500 -74.0833 166° South 180 207 3,000 -545 Descending New York TRACON

Login

Don't have an account? Register now (free) for customized features, flight alerts, and more!